createdAt,value
2019-05-16T00:00:02.285Z,5.6754
2019-05-16T00:00:15.275Z,5.3556
2019-05-16T00:00:22.282Z,4.9533
2019-05-16T00:00:33.279Z,4.8307
2019-05-16T00:00:42.285Z,5.2962
2019-05-16T00:00:53.290Z,4.6915
2019-05-16T00:01:02.302Z,5.1247
2019-05-16T00:01:13.293Z,5.6232
2019-05-16T00:01:22.273Z,5.1971
2019-05-16T00:01:33.278Z,4.6800
2019-05-16T00:01:43.229Z,4.9310
2019-05-16T00:01:52.502Z,4.7329
2019-05-16T00:02:03.279Z,4.3550
2019-05-16T00:02:13.291Z,3.6441
2019-05-16T00:02:25.252Z,4.9085
2019-05-16T00:02:34.748Z,5.5669
2019-05-16T00:02:44.320Z,5.5868
2019-05-16T00:02:52.291Z,5.8239
2019-05-16T00:03:04.271Z,6.2188
2019-05-16T00:03:12.276Z,5.1614
2019-05-16T00:03:23.280Z,5.5933
2019-05-16T00:03:32.281Z,5.1252
2019-05-16T00:03:43.309Z,4.6403
2019-05-16T00:03:52.297Z,4.5623
2019-05-16T00:04:03.290Z,4.9797
2019-05-16T00:04:12.286Z,4.8747
2019-05-16T00:04:23.296Z,5.0032
2019-05-16T00:04:32.288Z,5.2429
2019-05-16T00:04:43.300Z,4.8215
2019-05-16T00:04:52.280Z,4.8223
2019-05-16T00:05:02.818Z,4.8006
2019-05-16T00:05:12.283Z,5.5119
2019-05-16T00:05:23.302Z,5.0369
2019-05-16T00:05:33.281Z,5.5590
2019-05-16T00:05:53.261Z,6.7757
2019-05-16T00:05:54.522Z,5.7611
2019-05-16T00:06:04.141Z,5.3811
2019-05-16T00:06:17.954Z,5.2075
2019-05-16T00:06:23.294Z,5.4641
2019-05-16T00:06:34.283Z,6.6472
2019-05-16T00:06:42.278Z,5.6653
2019-05-16T00:06:54.271Z,3.6467
2019-05-16T00:07:02.288Z,3.1506
2019-05-16T00:07:13.285Z,3.8311
2019-05-16T00:07:22.295Z,4.4749
2019-05-16T00:07:33.277Z,4.8823
2019-05-16T00:07:42.299Z,5.4906
2019-05-16T00:07:53.305Z,6.3658
2019-05-16T00:08:02.296Z,6.5958
2019-05-16T00:08:13.297Z,6.1781
2019-05-16T00:08:22.276Z,6.1306
2019-05-16T00:08:33.287Z,5.1114
2019-05-16T00:08:42.276Z,5.1836
2019-05-16T00:08:53.300Z,5.6079
2019-05-16T00:09:02.280Z,5.8413
2019-05-16T00:09:14.293Z,6.3620
2019-05-16T00:09:22.279Z,5.5833
2019-05-16T00:09:32.195Z,5.2969
2019-05-16T00:09:42.322Z,4.7821
2019-05-16T00:09:52.496Z,4.8235
2019-05-16T00:10:03.203Z,4.8310
2019-05-16T00:10:13.289Z,3.4215
2019-05-16T00:10:22.267Z,3.5468
2019-05-16T00:10:33.290Z,4.0715
2019-05-16T00:10:45.224Z,5.2575
2019-05-16T00:10:53.270Z,6.3867
2019-05-16T00:11:04.292Z,7.2047
2019-05-16T00:11:12.288Z,7.3233
2019-05-16T00:11:24.268Z,6.2041
2019-05-16T00:11:32.277Z,5.5905
2019-05-16T00:11:43.299Z,5.8668
2019-05-16T00:11:52.274Z,4.7712
2019-05-16T00:12:03.295Z,3.9478
2019-05-16T00:12:12.292Z,4.2541
2019-05-16T00:12:23.284Z,5.1948
2019-05-16T00:12:32.308Z,6.0263
2019-05-16T00:12:43.284Z,5.8303
2019-05-16T00:12:52.290Z,5.9478
2019-05-16T00:13:03.295Z,5.3440
2019-05-16T00:13:12.292Z,4.5664
2019-05-16T00:13:23.294Z,4.9686
2019-05-16T00:13:33.279Z,5.8955
2019-05-16T00:13:43.291Z,5.4808
2019-05-16T00:13:52.296Z,4.0578
2019-05-16T00:14:03.276Z,3.5876
2019-05-16T00:14:12.295Z,3.6560
2019-05-16T00:14:23.295Z,4.3181
2019-05-16T00:14:32.305Z,4.8237
2019-05-16T00:14:43.295Z,5.1615
2019-05-16T00:14:53.201Z,4.5336
2019-05-16T00:15:03.293Z,3.7107
2019-05-16T00:15:12.284Z,3.8428
2019-05-16T00:15:24.168Z,4.3408
2019-05-16T00:15:34.294Z,5.1637
2019-05-16T00:15:43.274Z,4.8597
2019-05-16T00:15:55.033Z,4.9946
2019-05-16T00:16:02.292Z,5.8571
2019-05-16T00:16:14.255Z,5.3173
2019-05-16T00:16:22.276Z,5.8029
2019-05-16T00:16:33.274Z,4.7103
2019-05-16T00:16:42.306Z,4.4216
2019-05-16T00:16:51.794Z,5.3401
2019-05-16T00:17:02.286Z,6.2109
2019-05-16T00:17:13.286Z,6.0195
2019-05-16T00:17:28.417Z,5.2444
2019-05-16T00:17:33.289Z,5.0591
2019-05-16T00:17:42.277Z,4.8049
2019-05-16T00:17:53.286Z,5.0020
2019-05-16T00:18:02.300Z,3.9918
2019-05-16T00:18:13.315Z,4.4871
2019-05-16T00:18:23.300Z,5.6231
2019-05-16T00:18:33.264Z,5.7668
2019-05-16T00:18:42.297Z,5.1573
2019-05-16T00:18:53.284Z,5.1521
2019-05-16T00:19:02.326Z,4.2190
2019-05-16T00:19:12.255Z,5.5670
2019-05-16T00:19:22.289Z,6.2227
2019-05-16T00:19:32.138Z,5.2994
2019-05-16T00:19:42.280Z,6.0341
2019-05-16T00:19:53.296Z,6.1158
2019-05-16T00:20:02.292Z,5.6261
2019-05-16T00:20:14.216Z,4.8582
2019-05-16T00:20:24.284Z,3.9955
2019-05-16T00:20:33.321Z,4.1572
2019-05-16T00:20:45.211Z,4.9427
2019-05-16T00:20:52.287Z,4.8467
2019-05-16T00:21:04.284Z,4.3983
2019-05-16T00:21:18.007Z,3.7463
2019-05-16T00:21:24.253Z,3.7713
2019-05-16T00:21:32.289Z,4.6196
2019-05-16T00:21:43.271Z,5.5889
2019-05-16T00:21:52.307Z,4.7919
2019-05-16T00:22:03.280Z,4.3515
2019-05-16T00:22:18.033Z,3.6293
2019-05-16T00:22:23.285Z,3.6042
2019-05-16T00:22:32.281Z,3.5561
2019-05-16T00:22:48.397Z,3.9445
2019-05-16T00:22:52.266Z,4.2639
2019-05-16T00:23:07.783Z,4.0585
2019-05-16T00:23:12.283Z,4.0685
2019-05-16T00:23:23.288Z,4.5042
2019-05-16T00:23:32.295Z,5.6996
2019-05-16T00:23:48.581Z,4.5941
2019-05-16T00:23:52.285Z,4.3519
2019-05-16T00:24:02.331Z,4.0348
2019-05-16T00:24:12.284Z,3.9716
2019-05-16T00:24:23.294Z,4.9128
2019-05-16T00:24:32.295Z,5.5730
2019-05-16T00:24:43.301Z,5.1418
2019-05-16T00:24:53.769Z,5.2378
2019-05-16T00:25:03.291Z,5.2962
2019-05-16T00:25:13.329Z,5.0991
2019-05-16T00:25:23.276Z,5.3810
2019-05-16T00:25:32.284Z,5.2150
2019-05-16T00:25:43.306Z,5.4273
2019-05-16T00:25:53.325Z,5.0924
2019-05-16T00:26:03.279Z,4.7513
2019-05-16T00:26:15.768Z,4.8985
2019-05-16T00:26:28.053Z,5.4123
2019-05-16T00:26:35.373Z,5.5498
2019-05-16T00:26:43.295Z,5.1753
2019-05-16T00:26:55.113Z,5.3153
2019-05-16T00:27:03.271Z,5.4929
2019-05-16T00:27:14.283Z,6.6329
2019-05-16T00:27:22.296Z,6.0270
2019-05-16T00:27:35.283Z,5.6870
2019-05-16T00:27:42.275Z,7.3082
2019-05-16T00:27:53.280Z,7.8968
2019-05-16T00:28:02.264Z,7.6326
2019-05-16T00:28:13.290Z,7.3535
2019-05-16T00:28:23.809Z,6.8246
2019-05-16T00:28:33.275Z,5.8264
2019-05-16T00:28:42.296Z,6.0047
2019-05-16T00:28:53.290Z,6.1533
2019-05-16T00:29:02.377Z,6.0858
2019-05-16T00:29:13.290Z,5.4970
2019-05-16T00:29:22.290Z,5.9247
2019-05-16T00:29:33.277Z,5.4755
2019-05-16T00:29:42.296Z,6.3499
2019-05-16T00:29:53.281Z,6.2756
2019-05-16T00:30:02.273Z,5.9700
2019-05-16T00:30:13.301Z,6.0083
2019-05-16T00:30:22.279Z,5.6842
2019-05-16T00:30:33.312Z,5.6861
2019-05-16T00:30:42.287Z,6.2639
2019-05-16T00:30:53.281Z,5.3574
2019-05-16T00:31:02.295Z,5.4323
2019-05-16T00:31:12.496Z,6.5141
2019-05-16T00:31:22.291Z,6.4611
2019-05-16T00:31:34.205Z,6.0009
2019-05-16T00:31:42.307Z,5.0337
2019-05-16T00:31:53.351Z,4.5982
2019-05-16T00:32:04.288Z,5.9913
2019-05-16T00:32:14.169Z,5.8972
2019-05-16T00:32:24.294Z,5.3465
2019-05-16T00:32:32.310Z,5.3866
2019-05-16T00:32:44.264Z,4.4052
2019-05-16T00:32:52.300Z,4.6899
2019-05-16T00:33:03.281Z,5.5859
2019-05-16T00:33:12.296Z,5.9907
2019-05-16T00:33:23.279Z,5.1904
2019-05-16T00:33:32.276Z,4.6171
2019-05-16T00:33:43.292Z,4.8189
2019-05-16T00:33:52.315Z,5.1076
2019-05-16T00:34:03.341Z,5.3209
2019-05-16T00:34:12.293Z,5.8278
2019-05-16T00:34:23.294Z,6.1079
2019-05-16T00:34:32.264Z,5.6372
2019-05-16T00:34:43.387Z,5.2309
2019-05-16T00:34:52.273Z,5.4121
2019-05-16T00:35:03.279Z,5.6680
2019-05-16T00:35:12.295Z,6.1097
2019-05-16T00:35:21.791Z,6.2846
2019-05-16T00:35:32.283Z,6.7813
2019-05-16T00:35:43.271Z,5.7061
2019-05-16T00:36:02.578Z,5.2697
2019-05-16T00:36:05.930Z,4.9202
2019-05-16T00:36:12.284Z,5.2323
2019-05-16T00:36:27.825Z,4.8869
2019-05-16T00:36:32.277Z,5.0257
2019-05-16T00:36:43.306Z,5.4446
2019-05-16T00:36:53.835Z,5.3525
2019-05-16T00:37:03.284Z,5.4957
2019-05-16T00:37:14.299Z,5.7765
2019-05-16T00:37:24.457Z,6.3156
2019-05-16T00:37:35.168Z,5.6636
2019-05-16T00:37:42.294Z,5.6475
2019-05-16T00:37:54.279Z,5.7753
2019-05-16T00:38:02.286Z,5.5952
2019-05-16T00:38:13.291Z,4.6574
2019-05-16T00:38:22.285Z,4.7680
2019-05-16T00:38:33.281Z,5.1727
2019-05-16T00:38:42.309Z,5.9536
2019-05-16T00:38:53.285Z,8.4457
2019-05-16T00:39:02.306Z,8.2394
2019-05-16T00:39:13.286Z,7.0969
2019-05-16T00:39:22.275Z,6.3731
2019-05-16T00:39:33.267Z,5.2186
2019-05-16T00:39:42.286Z,5.2413
2019-05-16T00:39:53.289Z,4.6426
2019-05-16T00:40:02.577Z,5.5918
2019-05-16T00:40:13.288Z,5.9986
2019-05-16T00:40:22.268Z,5.1199
2019-05-16T00:40:33.266Z,4.6343
2019-05-16T00:40:42.282Z,4.7931
2019-05-16T00:40:52.718Z,5.1356
2019-05-16T00:41:02.293Z,4.6672
2019-05-16T00:41:13.289Z,5.0081
2019-05-16T00:41:22.309Z,4.8050
2019-05-16T00:41:33.317Z,4.4820
2019-05-16T00:41:43.300Z,3.9189
2019-05-16T00:41:52.540Z,4.2949
2019-05-16T00:42:02.290Z,4.2814
2019-05-16T00:42:13.295Z,4.5922
2019-05-16T00:42:22.258Z,4.6065
2019-05-16T00:42:33.295Z,5.8954
2019-05-16T00:42:42.754Z,6.2803
2019-05-16T00:42:53.277Z,5.5587
2019-05-16T00:43:04.280Z,4.9579
2019-05-16T00:43:12.290Z,5.3886
2019-05-16T00:43:24.295Z,5.8880
2019-05-16T00:43:32.305Z,5.4202
2019-05-16T00:43:43.322Z,6.7921
2019-05-16T00:43:52.273Z,6.6802
2019-05-16T00:44:03.261Z,6.4236
2019-05-16T00:44:12.287Z,5.8080
2019-05-16T00:44:23.318Z,5.8087
2019-05-16T00:44:32.267Z,6.7473
2019-05-16T00:44:43.293Z,6.2819
2019-05-16T00:44:52.297Z,6.3134
2019-05-16T00:45:01.763Z,6.2637
2019-05-16T00:45:13.530Z,5.8744
2019-05-16T00:45:23.767Z,6.4711
2019-05-16T00:45:34.781Z,6.7035
2019-05-16T00:45:43.297Z,5.6910
2019-05-16T00:45:52.313Z,5.1878
2019-05-16T00:46:03.299Z,6.0086
2019-05-16T00:46:12.288Z,5.2344
2019-05-16T00:46:23.289Z,5.2645
2019-05-16T00:46:32.281Z,5.2213
2019-05-16T00:46:42.443Z,4.6662
2019-05-16T00:46:52.289Z,4.7999
2019-05-16T00:47:02.863Z,4.4468
2019-05-16T00:47:13.228Z,5.4765
2019-05-16T00:47:22.513Z,5.7705
2019-05-16T00:47:32.280Z,6.0697
2019-05-16T00:47:41.820Z,5.0018
2019-05-16T00:47:52.305Z,5.4788
2019-05-16T00:48:04.207Z,5.2211
2019-05-16T00:48:14.280Z,5.0752
2019-05-16T00:48:23.303Z,5.0311
2019-05-16T00:48:34.279Z,5.5077
2019-05-16T00:48:44.225Z,5.6610
2019-05-16T00:48:55.026Z,5.4791
2019-05-16T00:49:02.296Z,5.0140
2019-05-16T00:49:14.284Z,5.3643
2019-05-16T00:49:22.348Z,5.9927
2019-05-16T00:49:33.284Z,5.8059
2019-05-16T00:49:42.287Z,5.0512
2019-05-16T00:49:53.328Z,4.2239
2019-05-16T00:50:02.336Z,5.0109
2019-05-16T00:50:13.309Z,5.5889
2019-05-16T00:50:22.293Z,5.4608
2019-05-16T00:50:33.297Z,4.7052
2019-05-16T00:50:42.298Z,5.7793
2019-05-16T00:50:53.278Z,6.3269
2019-05-16T00:51:02.337Z,5.5253
2019-05-16T00:51:13.288Z,5.2407
2019-05-16T00:51:22.300Z,5.2364
2019-05-16T00:51:33.282Z,4.1979
2019-05-16T00:51:42.272Z,3.3514
2019-05-16T00:51:53.296Z,3.8797
2019-05-16T00:52:02.284Z,4.5776
2019-05-16T00:52:13.293Z,5.2491
2019-05-16T00:52:22.305Z,5.9005
2019-05-16T00:52:33.277Z,5.9449
2019-05-16T00:52:42.295Z,5.4616
2019-05-16T00:52:52.503Z,4.8905
2019-05-16T00:53:02.284Z,4.7799
2019-05-16T00:53:14.245Z,5.0611
2019-05-16T00:53:22.289Z,5.4269
2019-05-16T00:53:33.298Z,5.9799
2019-05-16T00:53:45.210Z,6.2252
2019-05-16T00:53:53.290Z,5.4912
2019-05-16T00:54:04.282Z,4.9072
2019-05-16T00:54:12.288Z,4.4353
2019-05-16T00:54:24.273Z,4.1196
2019-05-16T00:54:32.301Z,4.3532
2019-05-16T00:54:43.285Z,4.9402
2019-05-16T00:54:52.275Z,5.6598
2019-05-16T00:55:03.341Z,5.1501
2019-05-16T00:55:12.274Z,5.0053
2019-05-16T00:55:23.295Z,5.0122
2019-05-16T00:55:32.274Z,5.7201
2019-05-16T00:55:43.288Z,5.9849
2019-05-16T00:55:52.274Z,6.2497
2019-05-16T00:56:03.282Z,5.5112
2019-05-16T00:56:18.641Z,6.0129
2019-05-16T00:56:22.268Z,5.9648
2019-05-16T00:56:32.270Z,6.0258
2019-05-16T00:56:43.273Z,5.5503
2019-05-16T00:56:52.270Z,6.1566
2019-05-16T00:57:03.292Z,5.6950
2019-05-16T00:57:12.289Z,6.4367
2019-05-16T00:57:23.274Z,6.3673
2019-05-16T00:57:34.273Z,6.9627
2019-05-16T00:57:42.264Z,6.3589
2019-05-16T00:57:52.307Z,6.0771
2019-05-16T00:58:02.157Z,5.2863
2019-05-16T00:58:12.276Z,6.1353
2019-05-16T00:58:23.295Z,6.9791
2019-05-16T00:58:34.333Z,5.9051
2019-05-16T00:58:44.285Z,4.6755
2019-05-16T00:58:52.838Z,4.4877
2019-05-16T00:59:02.269Z,5.6778
2019-05-16T00:59:15.145Z,5.3531
2019-05-16T00:59:22.280Z,5.5083
2019-05-16T00:59:33.274Z,5.7482
2019-05-16T00:59:42.285Z,5.4666
2019-05-16T00:59:53.279Z,5.5587
2019-05-16T01:00:02.293Z,5.3018
2019-05-16T01:00:13.267Z,4.7426
2019-05-16T01:00:22.286Z,5.4913
2019-05-16T01:00:33.294Z,6.1920
2019-05-16T01:00:42.284Z,7.0619
2019-05-16T01:00:53.307Z,6.7243
2019-05-16T01:01:02.268Z,6.2914
2019-05-16T01:01:13.314Z,7.0467
2019-05-16T01:01:22.305Z,6.3539
2019-05-16T01:01:33.295Z,5.5681
2019-05-16T01:01:42.295Z,5.3082
2019-05-16T01:01:53.301Z,5.6307
2019-05-16T01:02:02.298Z,5.3560
2019-05-16T01:02:12.237Z,5.7610
2019-05-16T01:02:22.281Z,6.0861
2019-05-16T01:02:33.267Z,5.6050
2019-05-16T01:02:42.293Z,6.4904
2019-05-16T01:02:52.259Z,5.7582
2019-05-16T01:03:02.316Z,6.1622
2019-05-16T01:03:13.286Z,6.3166
2019-05-16T01:03:23.191Z,5.4105
2019-05-16T01:03:33.303Z,4.8160
2019-05-16T01:03:44.318Z,4.5513
2019-05-16T01:03:53.303Z,4.9121
2019-05-16T01:04:05.263Z,5.9689
2019-05-16T01:04:12.325Z,5.2935
2019-05-16T01:04:25.106Z,5.5579
2019-05-16T01:04:32.275Z,5.0545
2019-05-16T01:04:43.288Z,4.6462
2019-05-16T01:04:52.284Z,4.7941
2019-05-16T01:05:03.285Z,5.2865
2019-05-16T01:05:14.513Z,5.9777
2019-05-16T01:05:23.283Z,6.9710
2019-05-16T01:05:32.280Z,7.1963
2019-05-16T01:05:47.906Z,7.5496
2019-05-16T01:05:52.279Z,7.1210
2019-05-16T01:06:15.756Z,5.8690
2019-05-16T01:06:19.106Z,5.3126
2019-05-16T01:06:23.185Z,5.0240
2019-05-16T01:06:38.090Z,4.3729
2019-05-16T01:06:43.290Z,4.7344
2019-05-16T01:06:52.288Z,5.1857
2019-05-16T01:07:08.248Z,5.3859
2019-05-16T01:07:12.276Z,5.9266
2019-05-16T01:07:23.287Z,5.9083
2019-05-16T01:07:32.277Z,6.0123
2019-05-16T01:07:43.285Z,6.0805
2019-05-16T01:07:52.271Z,5.4188
2019-05-16T01:08:03.281Z,5.0551
2019-05-16T01:08:12.302Z,4.8044
2019-05-16T01:08:28.263Z,4.8778
2019-05-16T01:08:32.285Z,5.4609
2019-05-16T01:08:43.308Z,6.1984
2019-05-16T01:08:52.299Z,5.5592
2019-05-16T01:09:04.314Z,5.3034
2019-05-16T01:09:14.312Z,4.7592
2019-05-16T01:09:24.104Z,5.3845
2019-05-16T01:09:34.281Z,5.8728
2019-05-16T01:09:43.257Z,5.9847
2019-05-16T01:09:54.306Z,5.5401
2019-05-16T01:10:02.283Z,6.1095
2019-05-16T01:10:14.315Z,5.7186
2019-05-16T01:10:22.281Z,5.0207
2019-05-16T01:10:33.295Z,4.6306
2019-05-16T01:10:42.302Z,4.7747
2019-05-16T01:10:53.291Z,4.7797
2019-05-16T01:11:02.307Z,4.6159
2019-05-16T01:11:13.297Z,5.1101
2019-05-16T01:11:22.272Z,5.4081
2019-05-16T01:11:33.289Z,6.6511
2019-05-16T01:11:42.276Z,6.7000
2019-05-16T01:11:51.805Z,6.0553
2019-05-16T01:12:02.298Z,6.0239
2019-05-16T01:12:13.268Z,5.7531
2019-05-16T01:12:22.277Z,5.6106
2019-05-16T01:12:33.284Z,5.2898
2019-05-16T01:12:42.288Z,4.9656
2019-05-16T01:12:53.295Z,4.2813
2019-05-16T01:13:02.282Z,4.4207
2019-05-16T01:13:13.283Z,4.9129
2019-05-16T01:13:22.269Z,5.0429
2019-05-16T01:13:33.284Z,4.5282
2019-05-16T01:13:42.304Z,5.1366
2019-05-16T01:13:52.245Z,6.1334
2019-05-16T01:14:02.309Z,6.3240
2019-05-16T01:14:13.302Z,5.6559
2019-05-16T01:14:22.295Z,6.0026
2019-05-16T01:14:32.207Z,6.0301
2019-05-16T01:14:42.282Z,6.3618
2019-05-16T01:14:53.278Z,5.8853
2019-05-16T01:15:02.854Z,5.4728
2019-05-16T01:15:14.700Z,5.0524
2019-05-16T01:15:24.290Z,5.8784
2019-05-16T01:15:33.280Z,5.2264
2019-05-16T01:15:42.770Z,4.5448
2019-05-16T01:15:52.286Z,3.8762
2019-05-16T01:16:05.207Z,4.8519
2019-05-16T01:16:12.275Z,4.9225
2019-05-16T01:16:24.290Z,4.2526
2019-05-16T01:16:32.295Z,4.4856
2019-05-16T01:16:43.314Z,4.6561
2019-05-16T01:16:52.285Z,4.7909
2019-05-16T01:17:03.302Z,5.7641
2019-05-16T01:17:12.286Z,5.9835
2019-05-16T01:17:23.298Z,6.6940
2019-05-16T01:17:32.288Z,6.5208
2019-05-16T01:17:43.910Z,5.0159
2019-05-16T01:17:52.314Z,5.3564
2019-05-16T01:18:03.273Z,5.1947
2019-05-16T01:18:12.313Z,5.0824
2019-05-16T01:18:23.287Z,5.0531
2019-05-16T01:18:32.271Z,5.0442
2019-05-16T01:18:43.281Z,6.0898
2019-05-16T01:18:52.290Z,6.8565
2019-05-16T01:19:03.305Z,6.6560
2019-05-16T01:19:12.261Z,7.4560
2019-05-16T01:19:27.908Z,6.5028
2019-05-16T01:19:32.284Z,5.9377
2019-05-16T01:19:43.296Z,5.1855
2019-05-16T01:19:52.290Z,4.9965
2019-05-16T01:20:03.275Z,5.5233
2019-05-16T01:20:12.285Z,5.5420
2019-05-16T01:20:23.300Z,6.2050
2019-05-16T01:20:32.299Z,7.2524
2019-05-16T01:20:42.296Z,7.0592
2019-05-16T01:20:52.312Z,5.5832
2019-05-16T01:21:02.120Z,5.5973
2019-05-16T01:21:13.306Z,6.2431
2019-05-16T01:21:22.766Z,6.3609
2019-05-16T01:21:32.291Z,6.7177
2019-05-16T01:21:43.339Z,5.3288
2019-05-16T01:21:54.289Z,5.4561
2019-05-16T01:22:03.295Z,5.3812
2019-05-16T01:22:14.307Z,5.5736
2019-05-16T01:22:22.269Z,6.6865
2019-05-16T01:22:34.287Z,6.2011
2019-05-16T01:22:42.293Z,6.4980
2019-05-16T01:22:53.314Z,5.1831
2019-05-16T01:23:02.313Z,5.0723
2019-05-16T01:23:13.274Z,5.5892
2019-05-16T01:23:22.289Z,5.2787
2019-05-16T01:23:33.293Z,5.0719
2019-05-16T01:23:44.807Z,5.9631
2019-05-16T01:23:54.815Z,5.6624
2019-05-16T01:24:02.293Z,6.3270
2019-05-16T01:24:13.288Z,6.9587
2019-05-16T01:24:22.292Z,6.7773
2019-05-16T01:24:33.294Z,7.0006
2019-05-16T01:24:42.288Z,6.1481
2019-05-16T01:24:53.296Z,6.0179
2019-05-16T01:25:02.285Z,5.6540
2019-05-16T01:25:13.296Z,6.1804
2019-05-16T01:25:22.271Z,7.0875
2019-05-16T01:25:32.731Z,6.9457
2019-05-16T01:25:48.435Z,6.9637
2019-05-16T01:25:52.433Z,6.9026
2019-05-16T01:26:03.787Z,5.8008
2019-05-16T01:26:13.282Z,6.4350
2019-05-16T01:26:23.080Z,6.5341
2019-05-16T01:26:32.244Z,6.7651
2019-05-16T01:26:42.284Z,5.8077
2019-05-16T01:26:53.290Z,5.5932
2019-05-16T01:27:03.193Z,5.7123
2019-05-16T01:27:13.290Z,5.1725
2019-05-16T01:27:24.285Z,5.7601
2019-05-16T01:27:33.280Z,6.0774
2019-05-16T01:27:45.224Z,5.5696
2019-05-16T01:27:52.273Z,5.7459
2019-05-16T01:28:03.293Z,5.7307
2019-05-16T01:28:12.263Z,5.0347
2019-05-16T01:28:23.276Z,5.1140
2019-05-16T01:28:32.291Z,4.7310
2019-05-16T01:28:43.280Z,5.4996
2019-05-16T01:28:52.282Z,5.6442
2019-05-16T01:29:03.305Z,5.9824
2019-05-16T01:29:12.269Z,5.8025
2019-05-16T01:29:23.292Z,5.0115
2019-05-16T01:29:32.282Z,4.6357
2019-05-16T01:29:43.274Z,5.0066
2019-05-16T01:29:52.436Z,5.4591
2019-05-16T01:30:03.295Z,5.4263
2019-05-16T01:30:12.274Z,5.5685
2019-05-16T01:30:23.267Z,6.0351
2019-05-16T01:30:32.285Z,6.2123
2019-05-16T01:30:43.268Z,5.5644
2019-05-16T01:30:52.297Z,5.4229
2019-05-16T01:31:03.279Z,5.1428
2019-05-16T01:31:12.285Z,5.2094
2019-05-16T01:31:22.213Z,4.6245
2019-05-16T01:31:32.284Z,4.7391
2019-05-16T01:31:43.296Z,5.5264
2019-05-16T01:31:53.177Z,5.3587
2019-05-16T01:32:03.291Z,5.1215
2019-05-16T01:32:12.298Z,4.8660
2019-05-16T01:32:23.278Z,5.7229
2019-05-16T01:32:33.374Z,5.6938
2019-05-16T01:32:44.806Z,5.0127
2019-05-16T01:32:53.802Z,4.3169
2019-05-16T01:33:03.320Z,5.4083
2019-05-16T01:33:14.294Z,5.4761
2019-05-16T01:33:24.266Z,5.1235
2019-05-16T01:33:34.282Z,4.9443
2019-05-16T01:33:42.284Z,5.8217
2019-05-16T01:33:55.295Z,6.1149
2019-05-16T01:34:04.824Z,6.5082
2019-05-16T01:34:13.304Z,6.0310
2019-05-16T01:34:22.276Z,5.3781
2019-05-16T01:34:33.278Z,4.3455
2019-05-16T01:34:42.288Z,4.0220
2019-05-16T01:34:53.292Z,4.5421
2019-05-16T01:35:02.297Z,4.8815
2019-05-16T01:35:13.291Z,4.5840
2019-05-16T01:35:22.281Z,4.9141
2019-05-16T01:35:33.277Z,6.1525
2019-05-16T01:35:42.296Z,5.8390
2019-05-16T01:35:53.290Z,6.0260
2019-05-16T01:36:02.266Z,6.3908
2019-05-16T01:36:13.275Z,6.9224
2019-05-16T01:36:36.100Z,6.8539
2019-05-16T01:36:36.960Z,5.1382
2019-05-16T01:36:42.293Z,4.5168
2019-05-16T01:36:53.284Z,4.9278
2019-05-16T01:37:02.319Z,5.2652
2019-05-16T01:37:13.301Z,6.3864
2019-05-16T01:37:22.287Z,5.5890
2019-05-16T01:37:33.322Z,6.2573
2019-05-16T01:37:42.287Z,6.6732
2019-05-16T01:37:52.264Z,6.2104
2019-05-16T01:38:02.272Z,5.7453
2019-05-16T01:38:13.297Z,5.3855
2019-05-16T01:38:22.282Z,5.6666
2019-05-16T01:38:33.293Z,5.3778
2019-05-16T01:38:42.304Z,5.0209
2019-05-16T01:38:53.290Z,6.0770
2019-05-16T01:39:05.054Z,6.8280
2019-05-16T01:39:14.415Z,7.0165
2019-05-16T01:39:24.275Z,6.0774
2019-05-16T01:39:34.106Z,6.0253
2019-05-16T01:39:44.283Z,7.6048
2019-05-16T01:39:52.304Z,8.6283
2019-05-16T01:40:04.294Z,6.8851
2019-05-16T01:40:12.295Z,6.5068
2019-05-16T01:40:23.296Z,6.3546
2019-05-16T01:40:32.264Z,6.6123
2019-05-16T01:40:43.270Z,6.1982
2019-05-16T01:40:52.290Z,6.1519
2019-05-16T01:41:03.284Z,6.6505
2019-05-16T01:41:12.288Z,7.4686
2019-05-16T01:41:23.290Z,7.8365
2019-05-16T01:41:32.285Z,7.3222
2019-05-16T01:41:43.274Z,6.9875
2019-05-16T01:41:52.303Z,6.5617
2019-05-16T01:42:03.280Z,7.0921
2019-05-16T01:42:12.280Z,6.1947
2019-05-16T01:42:23.270Z,5.6693
2019-05-16T01:42:32.284Z,5.4365
2019-05-16T01:42:42.717Z,5.6898
2019-05-16T01:42:53.271Z,7.0319
2019-05-16T01:43:03.304Z,6.8962
2019-05-16T01:43:14.287Z,6.4878
2019-05-16T01:43:23.300Z,5.8368
2019-05-16T01:43:33.354Z,5.2723
2019-05-16T01:43:43.302Z,4.9407
2019-05-16T01:43:53.150Z,4.9471
2019-05-16T01:44:04.325Z,5.2492
2019-05-16T01:44:18.327Z,4.4857
2019-05-16T01:44:22.331Z,4.1870
2019-05-16T01:44:38.195Z,5.1270
2019-05-16T01:44:42.274Z,5.4285
2019-05-16T01:44:57.698Z,4.9451
2019-05-16T01:45:02.283Z,6.2964
2019-05-16T01:45:13.306Z,5.9479
2019-05-16T01:45:22.286Z,5.6835
2019-05-16T01:45:33.280Z,5.4978
2019-05-16T01:45:42.313Z,5.5897
2019-05-16T01:45:53.306Z,6.0081
2019-05-16T01:46:04.268Z,6.6230
2019-05-16T01:46:17.845Z,7.1949
2019-05-16T01:46:22.321Z,6.9674
2019-05-16T01:46:33.274Z,6.2551
2019-05-16T01:46:42.304Z,5.4416
2019-05-16T01:46:53.276Z,5.6904
2019-05-16T01:47:02.284Z,6.5501
2019-05-16T01:47:13.296Z,6.9204
2019-05-16T01:47:22.299Z,7.4982
2019-05-16T01:47:33.295Z,6.7191
2019-05-16T01:47:42.283Z,5.2527
2019-05-16T01:47:58.700Z,4.9983
2019-05-16T01:48:02.286Z,5.2346
2019-05-16T01:48:14.895Z,5.7931
2019-05-16T01:48:22.285Z,8.2417
2019-05-16T01:48:33.279Z,8.3471
2019-05-16T01:48:43.307Z,7.8160
2019-05-16T01:48:53.290Z,7.0749
2019-05-16T01:49:02.295Z,5.5545
2019-05-16T01:49:14.290Z,4.9845
2019-05-16T01:49:24.316Z,5.7632
2019-05-16T01:49:33.276Z,5.7350
2019-05-16T01:49:44.276Z,5.8353
2019-05-16T01:49:52.272Z,5.9871
2019-05-16T01:50:08.726Z,6.5116
2019-05-16T01:50:12.272Z,6.0894
2019-05-16T01:50:23.297Z,5.4433
2019-05-16T01:50:33.779Z,5.7908
2019-05-16T01:50:43.281Z,4.8868
2019-05-16T01:50:52.275Z,4.0086
2019-05-16T01:51:03.291Z,4.3986
2019-05-16T01:51:12.296Z,5.2937
2019-05-16T01:51:23.271Z,5.3367
2019-05-16T01:51:32.302Z,5.6669
2019-05-16T01:51:43.292Z,6.1054
2019-05-16T01:51:52.291Z,5.2223
2019-05-16T01:52:03.290Z,4.9444
2019-05-16T01:52:12.304Z,5.6647
2019-05-16T01:52:23.273Z,6.9268
2019-05-16T01:52:32.274Z,6.6384
2019-05-16T01:52:42.708Z,6.3427
2019-05-16T01:52:52.297Z,5.9783
2019-05-16T01:53:02.196Z,5.9464
2019-05-16T01:53:14.303Z,6.0637
2019-05-16T01:53:23.294Z,5.9926
2019-05-16T01:53:33.178Z,6.3768
2019-05-16T01:53:42.490Z,5.1161
2019-05-16T01:53:52.266Z,5.2081
2019-05-16T01:54:04.070Z,6.7021
2019-05-16T01:54:13.309Z,7.6141
2019-05-16T01:54:22.351Z,6.6170
2019-05-16T01:54:32.785Z,6.1065
2019-05-16T01:54:43.288Z,5.4068
2019-05-16T01:54:55.144Z,5.3875
2019-05-16T01:55:02.306Z,5.5040
2019-05-16T01:55:18.719Z,5.4241
2019-05-16T01:55:22.279Z,5.2418
2019-05-16T01:55:38.135Z,5.8954
2019-05-16T01:55:42.269Z,6.3691
2019-05-16T01:55:53.276Z,6.2243
2019-05-16T01:56:02.274Z,6.2226
2019-05-16T01:56:13.284Z,6.2931
2019-05-16T01:56:22.284Z,5.7713
2019-05-16T01:56:33.291Z,6.4143
2019-05-16T01:56:42.278Z,7.1705
2019-05-16T01:56:53.273Z,7.0360
2019-05-16T01:57:02.810Z,6.4797
2019-05-16T01:57:13.278Z,5.5227
2019-05-16T01:57:22.298Z,5.5803
2019-05-16T01:57:33.278Z,4.4858
2019-05-16T01:57:48.068Z,4.5945
2019-05-16T01:57:53.285Z,4.8457
2019-05-16T01:58:02.291Z,5.6918
2019-05-16T01:58:12.312Z,5.6250
2019-05-16T01:58:22.287Z,6.1555
2019-05-16T01:58:32.100Z,5.8903
2019-05-16T01:58:43.324Z,5.9492
2019-05-16T01:58:58.297Z,6.8267
2019-05-16T01:59:02.293Z,7.5280
2019-05-16T01:59:13.314Z,7.4656
2019-05-16T01:59:22.275Z,6.9463
2019-05-16T01:59:34.274Z,5.9240
2019-05-16T01:59:42.304Z,5.5332
2019-05-16T01:59:53.312Z,5.2723
2019-05-16T02:00:02.318Z,5.1997
2019-05-16T02:00:13.287Z,5.2652
2019-05-16T02:00:26.057Z,5.0464
2019-05-16T02:00:36.514Z,5.0150
2019-05-16T02:00:57.740Z,5.2374
2019-05-16T02:01:02.060Z,6.0158
2019-05-16T02:01:12.389Z,6.7159
2019-05-16T02:01:15.780Z,7.2406
2019-05-16T02:01:23.305Z,7.0971
2019-05-16T02:01:32.306Z,7.3240
2019-05-16T02:01:43.296Z,7.1191
2019-05-16T02:01:52.279Z,6.2852
2019-05-16T02:02:03.289Z,5.8480
2019-05-16T02:02:12.300Z,6.2725
2019-05-16T02:02:23.304Z,5.2599
2019-05-16T02:02:32.288Z,5.2629
2019-05-16T02:02:43.270Z,6.6178
2019-05-16T02:02:52.270Z,7.0874
2019-05-16T02:03:03.290Z,6.7118
2019-05-16T02:03:12.270Z,7.2764
2019-05-16T02:03:23.291Z,6.8722
2019-05-16T02:03:32.294Z,7.1368
2019-05-16T02:03:43.298Z,7.7587
2019-05-16T02:03:52.280Z,6.9522
2019-05-16T02:04:03.285Z,7.1270
2019-05-16T02:04:12.465Z,6.9213
2019-05-16T02:04:23.280Z,6.8549
2019-05-16T02:04:32.298Z,6.7189
2019-05-16T02:04:43.307Z,6.7630